Terminal Aerodrome Forecast
Issued by NWS Portland, ME

Home | Current Version | Previous Version | Text Only | Print | Product List | Glossary On
Versions: 1 2 3 4 5 6 7 8 9 10 11 12 13 14 15 16 17 18 19 20
072
FTUS41 KGYX 222141 AAC
TAFPWM
TAF AMD
KPWM 222141Z 2222/2318 18012KT 5SM -SHRA OVC015
      TEMPO 2222/2224 2SM -RA BR
     FM230300 17006KT 2SM BR OVC004
     FM231300 32004KT P6SM BKN040=

USA.gov is the U.S. government's official web portal to all federal, state and local government web resources and services.